Time;durP1;ratioP1;P1;durP2;ratioP2;P2;SDS_P1;SDS_P2;PMS_P1;PMS_P2;Temp;Humidity;BMP_temperature;BMP_pressure;BME280_temperature;BME280_humidity;BME280_pressure;Samples;Min_cycle;Max_cycle;Signal;HPM_P1;HPM_P2
2022/05/30 00:01:56;;;;;;;5.90;1.38;;;13.80;83.00;;;;;;4993915;28;20033;-70
2022/05/30 00:04:22;;;;;;;5.00;1.50;;;13.70;82.90;;;;;;4995277;28;20034;-69
2022/05/30 00:06:48;;;;;;;3.55;1.40;;;13.70;83.00;;;;;;4993966;28;20039;-70
2022/05/30 00:09:13;;;;;;;6.13;1.40;;;13.70;83.00;;;;;;4994948;28;20429;-69
2022/05/30 00:11:40;;;;;;;2.38;0.90;;;13.60;83.00;;;;;;4994125;28;20093;-69
2022/05/30 00:14:06;;;;;;;2.88;1.10;;;13.60;83.10;;;;;;4994729;28;20034;-69
2022/05/30 00:16:33;;;;;;;3.40;0.65;;;13.50;83.10;;;;;;4994359;28;20433;-69
2022/05/30 00:18:59;;;;;;;5.47;1.88;;;13.60;83.10;;;;;;4994823;28;20046;-70
2022/05/30 00:21:26;;;;;;;2.78;1.10;;;13.60;83.40;;;;;;4993189;28;20070;-69
2022/05/30 00:23:55;;;;;;;6.57;1.27;;;13.50;83.50;;;;;;4994479;28;20488;-69
2022/05/30 00:26:24;;;;;;;5.43;1.45;;;13.50;83.80;;;;;;4994028;28;20597;-69
2022/05/30 00:28:50;;;;;;;5.97;1.60;;;13.50;84.00;;;;;;4991556;28;20135;-70
2022/05/30 00:31:18;;;;;;;4.50;1.45;;;13.50;84.20;;;;;;4993160;28;20478;-70
2022/05/30 00:33:44;;;;;;;5.55;1.50;;;13.50;84.40;;;;;;4993940;28;20041;-70
2022/05/30 00:36:10;;;;;;;6.82;1.20;;;13.50;84.50;;;;;;4993450;28;20096;-70
2022/05/30 00:38:36;;;;;;;3.47;1.65;;;13.50;84.60;;;;;;4994132;28;20038;-69
2022/05/30 00:41:03;;;;;;;3.15;1.23;;;13.50;84.60;;;;;;4994106;28;20081;-69
2022/05/30 00:43:32;;;;;;;5.85;1.60;;;13.50;84.40;;;;;;4993525;28;20117;-70
2022/05/30 00:46:02;;;;;;;1.80;0.98;;;13.50;84.40;;;;;;4993440;28;20085;-69
2022/05/30 00:48:36;;;;;;;5.72;1.45;;;13.50;84.70;;;;;;4993862;28;20038;-70
2022/05/30 00:51:07;;;;;;;9.60;2.75;;;13.50;85.30;;;;;;4980965;28;20540;-70
2022/05/30 00:53:34;;;;;;;6.03;1.50;;;13.50;85.50;;;;;;4993673;28;20042;-70
2022/05/30 00:56:02;;;;;;;3.33;1.10;;;13.50;85.60;;;;;;4993982;28;20113;-70
2022/05/30 00:58:31;;;;;;;5.75;1.27;;;13.50;85.70;;;;;;4991859;28;20027;-69
2022/05/30 01:00:57;;;;;;;5.07;1.63;;;13.60;85.70;;;;;;4983693;28;20094;-70
2022/05/30 01:08:53;;;;;;;4.00;1.00;;;13.50;85.50;;;;;;4987292;28;20034;-70
2022/05/30 01:11:19;;;;;;;2.80;1.30;;;13.50;85.70;;;;;;4992040;28;20069;-70
2022/05/30 01:13:45;;;;;;;5.38;1.20;;;13.50;85.80;;;;;;4993742;28;20034;-69
2022/05/30 01:16:11;;;;;;;3.67;1.33;;;13.50;85.80;;;;;;4991821;28;20042;-70
2022/05/30 01:18:45;;;;;;;4.18;1.08;;;13.40;85.60;;;;;;4990144;28;20441;-69
2022/05/30 01:21:35;;;;;;;6.65;1.30;;;13.40;85.70;;;;;;4990036;28;20092;-70
2022/05/30 01:24:43;;;;;;;2.55;1.02;;;13.50;85.60;;;;;;4991155;28;20089;-70
2022/05/30 01:27:48;;;;;;;1.38;1.20;;;13.40;85.30;;;;;;4989781;28;20034;-70
2022/05/30 01:30:15;;;;;;;3.70;1.40;;;13.40;85.30;;;;;;4990636;28;20109;-70
2022/05/30 01:32:42;;;;;;;2.97;1.65;;;13.30;85.20;;;;;;4991392;28;20026;-70
2022/05/30 01:35:10;;;;;;;3.88;1.23;;;13.30;85.30;;;;;;4993001;28;20109;-70
2022/05/30 01:37:39;;;;;;;5.80;1.30;;;13.30;85.40;;;;;;4979845;28;20062;-70
2022/05/30 01:40:05;;;;;;;2.22;1.30;;;13.30;85.50;;;;;;4990711;28;20078;-70
2022/05/30 01:42:33;;;;;;;1.65;1.15;;;13.30;85.30;;;;;;4991406;28;20022;-70
2022/05/30 01:44:59;;;;;;;2.75;1.02;;;13.40;85.50;;;;;;4992302;28;20542;-71
2022/05/30 01:47:25;;;;;;;6.88;1.73;;;13.30;85.40;;;;;;4983209;28;20023;-69
2022/05/30 01:49:51;;;;;;;2.08;0.85;;;13.30;85.30;;;;;;4991013;28;20490;-69
2022/05/30 01:52:25;;;;;;;2.92;1.02;;;13.30;85.00;;;;;;4978912;28;20493;-70
2022/05/30 01:54:52;;;;;;;3.45;1.20;;;13.30;85.00;;;;;;4987109;28;20037;-70
2022/05/30 01:57:38;;;;;;;11.35;1.52;;;13.20;84.90;;;;;;4990935;28;20033;-70
2022/05/30 02:00:23;;;;;;;3.38;1.08;;;13.20;84.90;;;;;;4990423;28;20402;-70
2022/05/30 02:02:50;;;;;;;5.53;1.63;;;13.10;84.70;;;;;;4991218;28;20028;-69
2022/05/30 02:05:16;;;;;;;2.90;1.00;;;13.10;84.60;;;;;;4990993;28;20033;-70
2022/05/30 02:07:42;;;;;;;2.90;1.15;;;13.00;84.50;;;;;;4991123;28;20033;-70
2022/05/30 02:10:10;;;;;;;4.05;1.15;;;13.00;84.60;;;;;;4989058;28;20030;-69
2022/05/30 02:12:38;;;;;;;3.50;1.23;;;13.00;84.50;;;;;;4982208;28;20035;-70
2022/05/30 02:15:15;;;;;;;4.53;1.23;;;12.90;84.50;;;;;;4984941;28;20169;-69
2022/05/30 02:17:40;;;;;;;2.00;0.90;;;12.90;84.50;;;;;;4991244;28;20120;-69
2022/05/30 02:20:07;;;;;;;6.53;1.30;;;12.90;84.50;;;;;;4987861;28;20537;-70
2022/05/30 02:22:33;;;;;;;2.75;1.38;;;12.80;84.30;;;;;;4991199;28;20062;-69
2022/05/30 02:25:00;;;;;;;1.88;1.10;;;12.80;84.50;;;;;;4990115;28;20062;-70
2022/05/30 02:27:26;;;;;;;7.30;1.20;;;12.80;84.50;;;;;;4991000;28;20038;-70
2022/05/30 02:29:54;;;;;;;2.63;1.23;;;12.80;84.60;;;;;;4988191;28;20105;-70
2022/05/30 02:32:22;;;;;;;3.55;1.08;;;12.70;84.50;;;;;;4983519;28;20046;-69
2022/05/30 02:37:33;;;;;;;1.52;0.98;;;12.70;84.70;;;;;;4980746;28;20112;-70
2022/05/30 02:40:16;;;;;;;2.75;1.20;;;12.70;84.60;;;;;;4990446;28;20050;-71
2022/05/30 02:42:50;;;;;;;5.55;1.25;;;12.70;84.70;;;;;;4989676;28;20124;-70
2022/05/30 02:45:17;;;;;;;1.67;0.90;;;12.60;84.80;;;;;;4991231;28;20394;-70
2022/05/30 02:47:43;;;;;;;4.70;1.25;;;12.60;84.70;;;;;;4990401;28;20108;-68
2022/05/30 02:50:13;;;;;;;5.88;1.10;;;12.60;84.80;;;;;;4990353;28;20034;-67
2022/05/30 02:52:39;;;;;;;5.38;1.17;;;12.60;84.90;;;;;;4991015;28;20041;-70
2022/05/30 02:55:08;;;;;;;1.45;0.90;;;12.60;84.60;;;;;;4989368;28;20030;-70
2022/05/30 02:57:49;;;;;;;1.70;0.80;;;12.50;84.30;;;;;;4990820;28;20047;-70
2022/05/30 03:00:16;;;;;;;3.95;1.05;;;12.50;84.20;;;;;;4990215;28;20505;-70
2022/05/30 03:02:42;;;;;;;2.53;1.02;;;12.50;84.30;;;;;;4990328;28;20019;-70
2022/05/30 03:05:08;;;;;;;1.83;1.13;;;12.40;84.30;;;;;;4989934;28;20421;-70
2022/05/30 03:07:35;;;;;;;0.93;0.70;;;12.40;84.40;;;;;;4991014;28;20690;-70
2022/05/30 03:10:06;;;;;;;2.42;0.93;;;12.40;84.40;;;;;;4988479;28;20378;-70
2022/05/30 03:12:53;;;;;;;3.47;1.00;;;12.40;84.50;;;;;;4989666;28;20038;-70
2022/05/30 03:15:19;;;;;;;0.82;0.82;;;12.30;84.60;;;;;;4990193;28;20030;-71
2022/05/30 03:17:44;;;;;;;7.45;0.98;;;12.30;84.70;;;;;;4988777;28;20023;-70
2022/05/30 03:20:10;;;;;;;3.60;0.77;;;12.30;84.70;;;;;;4990009;28;20494;-70
2022/05/30 03:22:37;;;;;;;11.45;0.73;;;12.30;84.70;;;;;;4989563;28;20130;-70
2022/05/30 03:25:29;;;;;;;0.40;0.40;;;12.30;84.70;;;;;;4989892;28;20033;-70
2022/05/30 03:27:56;;;;;;;0.38;0.38;;;12.20;84.70;;;;;;4991649;28;20026;-70
2022/05/30 03:30:23;;;;;;;3.90;0.40;;;12.20;84.90;;;;;;4978660;28;20029;-70
2022/05/30 03:32:49;;;;;;;0.30;0.30;;;12.10;85.10;;;;;;4989900;28;20026;-70
2022/05/30 03:35:16;;;;;;;2.83;0.77;;;12.10;85.30;;;;;;4987715;28;20113;-71
2022/05/30 03:37:49;;;;;;;;;;;12.10;85.60;;;;;;4990946;28;20035;-70
2022/05/30 03:40:38;;;;;;;0.63;0.60;;;12.00;85.60;;;;;;4991147;28;19925;-70
2022/05/30 03:43:23;;;;;;;0.45;0.45;;;12.00;85.80;;;;;;4992272;28;20049;-70
2022/05/30 03:45:48;;;;;;;1.08;0.45;;;12.00;86.10;;;;;;4993737;28;20402;-70
2022/05/30 03:48:15;;;;;;;0.45;0.45;;;12.00;86.30;;;;;;4993276;28;20030;-70
2022/05/30 03:50:42;;;;;;;3.30;0.90;;;11.90;86.50;;;;;;4994392;28;20525;-70
2022/05/30 03:53:09;;;;;;;1.33;0.55;;;11.90;86.60;;;;;;4991986;28;20039;-70
2022/05/30 03:55:40;;;;;;;0.63;0.52;;;11.80;86.60;;;;;;4993884;28;20126;-71
2022/05/30 03:58:11;;;;;;;1.67;0.82;;;11.80;86.80;;;;;;4996580;28;20049;-70
2022/05/30 04:00:39;;;;;;;0.63;0.63;;;11.80;86.80;;;;;;4993826;28;20030;-70
2022/05/30 04:03:07;;;;;;;6.88;0.90;;;11.90;86.90;;;;;;4992954;28;20470;-70
2022/05/30 04:05:33;;;;;;;0.80;0.80;;;11.90;87.00;;;;;;4994299;28;20395;-71
2022/05/30 04:07:59;;;;;;;2.83;0.60;;;11.90;87.00;;;;;;4993883;28;20061;-70
2022/05/30 04:10:57;;;;;;;2.63;0.88;;;11.90;87.00;;;;;;4994026;28;20041;-70
2022/05/30 04:13:41;;;;;;;5.90;1.10;;;11.90;87.20;;;;;;4992513;28;20070;-71
2022/05/30 04:16:24;;;;;;;;;;;11.90;87.20;;;;;;4994954;28;20124;-70
2022/05/30 04:18:51;;;;;;;1.05;0.52;;;11.80;87.10;;;;;;4993341;28;20362;-71
2022/05/30 04:21:17;;;;;;;0.75;0.60;;;11.90;87.20;;;;;;4992922;28;20089;-70
2022/05/30 04:23:43;;;;;;;1.88;0.65;;;11.90;87.30;;;;;;4993148;28;20023;-70
2022/05/30 04:26:21;;;;;;;1.88;1.08;;;11.80;87.50;;;;;;4992992;28;20057;-70
2022/05/30 04:28:50;;;;;;;1.02;0.77;;;11.90;87.70;;;;;;4996306;28;20125;-70
2022/05/30 04:31:34;;;;;;;;;;;11.90;87.60;;;;;;4994011;28;20049;-70
2022/05/30 04:34:00;;;;;;;3.17;1.08;;;11.80;87.40;;;;;;4992621;28;19909;-70
2022/05/30 04:36:27;;;;;;;1.23;0.93;;;11.90;87.60;;;;;;4992760;28;20061;-70
2022/05/30 04:38:54;;;;;;;8.02;1.02;;;11.90;87.70;;;;;;4993184;28;20061;-71
2022/05/30 04:41:40;;;;;;;1.33;0.60;;;11.90;87.80;;;;;;4952230;28;20038;-70
2022/05/30 04:44:41;;;;;;;3.03;0.55;;;11.90;87.90;;;;;;4952058;29;20035;-68
2022/05/30 04:47:27;;;;;;;2.47;1.08;;;11.80;87.90;;;;;;4986882;28;20418;-69
2022/05/30 04:49:56;;;;;;;0.93;0.85;;;11.80;88.00;;;;;;4992261;28;20026;-69
2022/05/30 04:52:22;;;;;;;1.83;1.00;;;11.80;88.10;;;;;;4992502;28;20478;-69
2022/05/30 04:54:49;;;;;;;1.85;1.00;;;11.80;88.10;;;;;;4990382;28;20022;-68
2022/05/30 04:57:27;;;;;;;9.68;1.15;;;11.90;88.10;;;;;;4990497;28;20034;-71
2022/05/30 05:00:20;;;;;;;2.50;1.23;;;11.90;88.20;;;;;;4989388;28;20509;-70
2022/05/30 05:02:46;;;;;;;2.28;0.47;;;11.80;88.10;;;;;;4984507;28;20202;-70
2022/05/30 05:05:13;;;;;;;1.48;1.00;;;11.90;88.10;;;;;;4992006;28;20034;-72
2022/05/30 05:08:16;;;;;;;3.47;1.23;;;11.90;88.10;;;;;;4991768;28;20045;-71
2022/05/30 05:11:16;;;;;;;4.22;0.70;;;11.90;88.50;;;;;;4929133;29;20043;-70
2022/05/30 05:14:07;;;;;;;1.80;1.05;;;11.90;88.00;;;;;;4990590;28;20041;-74
2022/05/30 05:16:51;;;;;;;4.03;1.00;;;11.90;87.90;;;;;;4990700;28;20046;-73
2022/05/30 05:19:17;;;;;;;3.40;1.10;;;11.90;87.90;;;;;;4991730;28;20047;-72
2022/05/30 05:21:45;;;;;;;2.45;1.20;;;11.90;88.10;;;;;;4991905;28;20042;-73
2022/05/30 05:24:12;;;;;;;2.05;1.00;;;11.90;88.20;;;;;;4990793;28;20441;-70
2022/05/30 05:27:04;;;;;;;3.75;0.63;;;12.00;88.20;;;;;;4976558;28;20046;-71
2022/05/30 05:29:30;;;;;;;1.10;0.82;;;12.00;88.00;;;;;;4991692;28;20037;-73
2022/05/30 05:31:57;;;;;;;4.47;0.73;;;12.00;88.10;;;;;;4990568;28;20031;-69
2022/05/30 05:34:24;;;;;;;1.10;0.60;;;12.00;88.00;;;;;;4992908;28;20100;-70
2022/05/30 05:36:49;;;;;;;2.33;0.90;;;12.00;87.90;;;;;;4991406;28;20359;-68
2022/05/30 05:39:17;;;;;;;1.75;0.68;;;12.10;87.90;;;;;;4990764;28;20042;-68
2022/05/30 05:42:06;;;;;;;0.70;0.70;;;12.10;87.90;;;;;;4992383;28;20035;-68
2022/05/30 05:44:32;;;;;;;2.95;1.05;;;12.10;87.80;;;;;;4990974;28;20051;-71
2022/05/30 05:46:58;;;;;;;0.52;0.47;;;12.10;88.00;;;;;;4991024;28;20117;-70
2022/05/30 05:49:29;;;;;;;1.75;0.80;;;12.10;88.10;;;;;;4991471;28;20044;-68
2022/05/30 05:51:55;;;;;;;0.22;0.22;;;12.10;88.30;;;;;;4990509;28;20068;-69
2022/05/30 05:54:26;;;;;;;1.20;0.80;;;12.10;88.40;;;;;;5007570;28;20022;-69
2022/05/30 05:56:55;;;;;;;2.05;0.80;;;12.10;88.60;;;;;;4991440;28;20045;-69
2022/05/30 05:59:26;;;;;;;0.43;0.43;;;12.10;89.00;;;;;;4990656;28;20046;-68
2022/05/30 06:01:52;;;;;;;0.40;0.40;;;12.10;89.40;;;;;;4981984;28;20022;-69
2022/05/30 06:04:19;;;;;;;0.40;0.40;;;12.10;89.40;;;;;;5001081;28;20030;-69
2022/05/30 06:07:14;;;;;;;0.20;0.20;;;12.10;90.10;;;;;;4992930;28;20031;-69
2022/05/30 06:10:04;;;;;;;2.47;0.88;;;12.00;90.00;;;;;;4980806;28;20049;-68
2022/05/30 06:12:40;;;;;;;1.40;0.70;;;12.00;90.10;;;;;;4988587;28;20368;-69
2022/05/30 06:15:06;;;;;;;1.08;0.85;;;12.10;90.30;;;;;;4991310;28;20497;-69
2022/05/30 06:17:43;;;;;;;2.73;0.67;;;12.00;90.30;;;;;;4990931;28;20033;-69
2022/05/30 06:20:11;;;;;;;2.25;0.40;;;12.00;90.40;;;;;;4992037;28;20035;-69
2022/05/30 06:22:37;;;;;;;0.50;0.50;;;12.10;90.60;;;;;;4989138;28;20050;-69
2022/05/30 06:25:18;;;;;;;0.68;0.52;;;12.10;90.70;;;;;;4990787;28;20078;-68
2022/05/30 06:28:09;;;;;;;0.70;0.60;;;12.00;90.80;;;;;;4968841;28;20137;-69
2022/05/30 06:30:53;;;;;;;0.40;0.40;;;12.00;90.80;;;;;;4991216;28;20022;-69
2022/05/30 06:33:18;;;;;;;0.30;0.30;;;12.00;91.00;;;;;;4989747;28;20037;-68
2022/05/30 06:35:48;;;;;;;0.30;0.30;;;12.10;91.00;;;;;;4991277;28;20815;-69
2022/05/30 06:38:16;;;;;;;0.77;0.77;;;12.10;91.00;;;;;;4990011;28;20116;-69
2022/05/30 06:40:50;;;;;;;1.08;0.93;;;12.10;91.10;;;;;;4989809;28;20410;-68
2022/05/30 06:43:17;;;;;;;2.95;0.45;;;12.20;90.90;;;;;;4990678;28;20023;-69
2022/05/30 06:46:06;;;;;;;0.40;0.40;;;12.20;90.90;;;;;;4992078;28;20081;-68
2022/05/30 06:48:55;;;;;;;1.27;0.40;;;12.30;90.80;;;;;;4980816;28;20045;-69
2022/05/30 06:51:35;;;;;;;0.22;0.22;;;12.30;90.80;;;;;;4991741;28;20097;-69
2022/05/30 06:54:01;;;;;;;2.63;0.55;;;12.30;90.90;;;;;;4990060;28;20041;-69
2022/05/30 06:56:33;;;;;;;4.18;0.52;;;12.30;90.90;;;;;;4986462;28;20149;-69
2022/05/30 06:58:59;;;;;;;0.25;0.25;;;12.30;91.00;;;;;;4990926;28;20508;-69
2022/05/30 07:01:28;;;;;;;0.63;0.55;;;12.30;91.00;;;;;;4987294;28;20034;-69
2022/05/30 07:04:22;;;;;;;1.17;0.73;;;12.30;91.10;;;;;;4991746;28;20564;-69
2022/05/30 07:07:10;;;;;;;1.02;0.60;;;12.30;91.20;;;;;;4992393;28;20057;-68
2022/05/30 07:09:59;;;;;;;0.52;0.30;;;12.30;91.30;;;;;;4981187;28;20053;-68
2022/05/30 07:12:51;;;;;;;0.43;0.20;;;12.30;91.40;;;;;;4989320;28;20035;-68
2022/05/30 07:15:18;;;;;;;0.40;0.40;;;12.30;91.60;;;;;;4989773;28;20026;-69
2022/05/30 07:17:44;;;;;;;0.10;0.10;;;12.30;91.60;;;;;;4991235;28;20129;-69
2022/05/30 07:20:11;;;;;;;1.52;0.52;;;12.30;91.60;;;;;;4994094;28;20042;-69
2022/05/30 07:22:55;;;;;;;0.20;0.20;;;12.30;91.60;;;;;;4986080;28;20141;-69
2022/05/30 07:25:40;;;;;;;2.28;0.60;;;12.40;91.60;;;;;;4995174;28;20100;-68
2022/05/30 07:28:31;;;;;;;0.32;0.32;;;12.40;91.50;;;;;;4995182;28;20038;-69
2022/05/30 07:31:18;;;;;;;0.30;0.30;;;12.50;91.40;;;;;;4992199;28;20108;-69
2022/05/30 07:34:16;;;;;;;0.38;0.38;;;12.50;91.40;;;;;;4962121;28;20403;-70
2022/05/30 07:37:01;;;;;;;2.25;0.52;;;12.60;91.40;;;;;;4983926;28;20053;-65
2022/05/30 07:39:44;;;;;;;0.30;0.30;;;12.50;91.30;;;;;;4993603;28;20096;-69
2022/05/30 07:42:15;;;;;;;2.80;0.43;;;12.60;91.30;;;;;;4993976;28;20041;-69
2022/05/30 07:45:07;;;;;;;0.32;0.32;;;12.60;91.30;;;;;;4990657;28;20062;-69
2022/05/30 07:47:40;;;;;;;0.55;0.50;;;12.60;91.30;;;;;;4995942;28;20030;-69
2022/05/30 07:50:27;;;;;;;3.63;0.50;;;12.60;91.30;;;;;;4981918;28;20034;-69
2022/05/30 07:53:06;;;;;;;1.92;0.77;;;12.70;91.30;;;;;;4980883;28;20022;-70
2022/05/30 07:55:57;;;;;;;0.52;0.52;;;12.70;91.30;;;;;;4989649;28;20034;-70
2022/05/30 07:58:22;;;;;;;0.30;0.30;;;12.80;91.20;;;;;;4992549;28;20106;-70
2022/05/30 08:00:51;;;;;;;1.05;0.60;;;12.90;91.10;;;;;;4992289;28;20038;-69
2022/05/30 08:03:25;;;;;;;0.50;0.50;;;12.90;91.10;;;;;;4982170;28;20117;-70
2022/05/30 08:06:13;;;;;;;3.10;0.60;;;12.90;91.10;;;;;;4991771;28;20122;-70
2022/05/30 08:08:57;;;;;;;2.53;0.80;;;13.00;90.90;;;;;;4994241;28;20416;-70
2022/05/30 08:11:24;;;;;;;1.52;0.93;;;13.10;91.00;;;;;;4993130;28;20034;-70
2022/05/30 08:13:57;;;;;;;0.30;0.30;;;13.10;91.00;;;;;;4981252;28;20398;-70
2022/05/30 08:16:26;;;;;;;1.27;0.90;;;13.20;90.90;;;;;;4993412;28;20101;-69
2022/05/30 08:18:52;;;;;;;2.17;0.80;;;13.20;90.80;;;;;;4981526;28;20034;-70
2022/05/30 08:21:18;;;;;;;1.45;0.73;;;13.30;90.70;;;;;;4993877;28;20041;-69
2022/05/30 08:23:48;;;;;;;0.30;0.30;;;13.40;90.60;;;;;;4990804;28;20042;-70
2022/05/30 08:26:14;;;;;;;6.05;1.08;;;13.50;90.50;;;;;;4992740;28;20034;-69
2022/05/30 08:28:59;;;;;;;8.93;1.20;;;13.40;90.80;;;;;;4991096;28;20073;-69
2022/05/30 08:31:25;;;;;;;1.17;0.60;;;13.50;91.30;;;;;;4993872;28;20057;-70
2022/05/30 08:34:09;;;;;;;4.80;0.90;;;13.50;91.20;;;;;;4993949;28;20029;-70
2022/05/30 08:36:39;;;;;;;1.52;0.85;;;13.60;91.10;;;;;;4992129;28;20026;-70
2022/05/30 08:41:49;;;;;;;3.63;0.80;;;13.70;90.90;;;;;;4988941;28;20141;-69
2022/05/30 08:44:30;;;;;;;0.52;0.52;;;13.70;90.70;;;;;;4988334;28;20109;-69
2022/05/30 08:47:51;;;;;;;0.30;0.30;;;13.70;90.50;;;;;;4982910;28;20049;-69
2022/05/30 08:50:31;;;;;;;;;;;13.70;90.60;;;;;;5005808;28;20496;-69
2022/05/30 08:53:29;;;;;;;0.47;0.30;;;13.70;90.60;;;;;;4991397;28;19918;-70
2022/05/30 08:56:24;;;;;;;0.43;0.43;;;13.60;90.70;;;;;;4990759;28;20390;-70
2022/05/30 08:59:39;;;;;;;0.68;0.68;;;13.60;90.90;;;;;;4973609;28;20137;-70
2022/05/30 09:02:31;;;;;;;0.45;0.45;;;13.60;91.00;;;;;;4986520;28;20513;-69
2022/05/30 09:05:13;;;;;;;1.15;0.57;;;13.60;90.90;;;;;;4990856;28;20031;-71
2022/05/30 09:07:54;;;;;;;1.15;0.80;;;13.60;90.90;;;;;;4985233;28;20050;-71
2022/05/30 09:10:28;;;;;;;5.47;0.68;;;13.60;90.90;;;;;;4990536;28;20026;-71
2022/05/30 09:13:16;;;;;;;1.17;0.60;;;13.60;90.90;;;;;;4991889;28;20080;-71
2022/05/30 09:16:19;;;;;;;3.00;0.77;;;13.80;90.90;;;;;;4990732;28;20034;-71
2022/05/30 09:18:51;;;;;;;0.70;0.70;;;13.80;90.90;;;;;;4992245;28;20470;-68
2022/05/30 09:21:22;;;;;;;2.55;1.00;;;13.80;90.80;;;;;;4991504;28;20026;-68
2022/05/30 09:23:49;;;;;;;2.63;0.75;;;13.90;90.80;;;;;;4991862;28;20030;-68
2022/05/30 09:26:23;;;;;;;3.55;0.65;;;13.90;90.90;;;;;;4993789;28;20188;-68
2022/05/30 09:29:05;;;;;;;5.22;0.73;;;13.90;90.50;;;;;;4981588;28;20031;-68
2022/05/30 09:32:25;;;;;;;0.52;0.52;;;13.90;90.40;;;;;;4990707;28;20394;-68
2022/05/30 09:35:41;;;;;;;0.30;0.30;;;13.90;90.40;;;;;;4933954;28;20044;-69
2022/05/30 09:38:27;;;;;;;0.85;0.60;;;14.00;90.50;;;;;;4992602;28;20117;-69
2022/05/30 09:41:40;;;;;;;0.80;0.70;;;13.90;90.60;;;;;;4987848;28;20116;-69
2022/05/30 09:44:18;;;;;;;0.45;0.45;;;13.80;90.80;;;;;;4980395;28;20434;-70
2022/05/30 09:46:58;;;;;;;0.40;0.40;;;13.80;90.80;;;;;;4990686;28;20026;-69
2022/05/30 09:49:53;;;;;;;1.45;0.45;;;13.80;90.90;;;;;;4975983;28;20442;-70
2022/05/30 09:52:29;;;;;;;0.65;0.60;;;13.70;91.20;;;;;;4991639;28;20030;-69
2022/05/30 09:54:58;;;;;;;0.60;0.60;;;13.80;91.10;;;;;;4990967;28;20077;-69
2022/05/30 09:57:41;;;;;;;1.95;0.50;;;13.80;91.20;;;;;;4991024;28;20030;-69
2022/05/30 10:00:19;;;;;;;0.73;0.73;;;13.80;91.30;;;;;;4995733;28;20116;-69
2022/05/30 10:03:18;;;;;;;0.73;0.70;;;13.90;91.40;;;;;;4994400;28;20030;-70
2022/05/30 10:05:45;;;;;;;4.38;0.95;;;13.80;91.30;;;;;;4980763;28;20136;-70
2022/05/30 10:08:27;;;;;;;0.38;0.38;;;13.80;91.20;;;;;;4980981;28;20297;-70
2022/05/30 10:11:05;;;;;;;2.53;1.00;;;13.90;91.20;;;;;;4976676;28;20045;-70
2022/05/30 10:13:37;;;;;;;0.55;0.55;;;13.90;91.10;;;;;;4991715;28;20042;-69
2022/05/30 10:16:31;;;;;;;1.65;0.68;;;14.00;91.10;;;;;;4992781;28;20060;-70
2022/05/30 10:19:00;;;;;;;0.70;0.70;;;14.00;91.00;;;;;;4990806;28;20037;-70
2022/05/30 10:28:49;;;;;;;0.40;0.32;;;14.10;91.00;;;;;;4979403;28;20027;-70
2022/05/30 10:31:50;;;;;;;3.50;0.95;;;14.10;90.80;;;;;;4989636;28;20186;-70
2022/05/30 10:34:28;;;;;;;3.42;0.80;;;14.10;91.00;;;;;;4989334;28;20026;-70
2022/05/30 10:37:13;;;;;;;3.00;1.00;;;14.20;91.00;;;;;;4989312;28;20442;-69
2022/05/30 10:39:59;;;;;;;1.95;0.77;;;14.20;91.10;;;;;;4990124;28;20383;-68
2022/05/30 10:42:28;;;;;;;2.53;0.88;;;14.20;91.10;;;;;;4975717;28;20093;-68
2022/05/30 10:45:01;;;;;;;0.95;0.70;;;14.30;91.20;;;;;;5000674;28;20089;-68
2022/05/30 10:47:45;;;;;;;5.07;1.00;;;14.40;91.40;;;;;;4990664;28;20035;-68
2022/05/30 10:50:42;;;;;;;3.05;0.85;;;14.50;91.60;;;;;;4990329;28;20026;-68
2022/05/30 10:53:27;;;;;;;1.50;0.50;;;14.50;91.20;;;;;;4992346;28;20023;-68
2022/05/30 10:56:32;;;;;;;3.28;0.95;;;14.60;90.80;;;;;;4985620;28;20034;-68
2022/05/30 10:59:05;;;;;;;2.10;0.65;;;14.70;90.50;;;;;;4992649;28;20401;-68
2022/05/30 11:01:45;;;;;;;1.85;0.50;;;14.70;90.00;;;;;;4979740;28;20029;-67
2022/05/30 11:04:15;;;;;;;1.83;0.68;;;14.80;88.90;;;;;;4994444;28;20022;-66
2022/05/30 11:06:44;;;;;;;2.97;0.95;;;14.90;88.90;;;;;;4993955;28;20037;-67
2022/05/30 11:09:33;;;;;;;3.72;0.77;;;14.90;89.20;;;;;;4994978;28;20474;-67
2022/05/30 11:12:14;;;;;;;3.35;0.77;;;15.00;89.20;;;;;;4994143;28;20085;-67
2022/05/30 11:15:01;;;;;;;1.75;0.65;;;15.00;89.00;;;;;;4994577;28;20056;-67
2022/05/30 11:18:10;;;;;;;1.40;0.70;;;15.10;88.80;;;;;;4994142;28;20084;-67
2022/05/30 11:21:20;;;;;;;0.68;0.68;;;15.20;88.80;;;;;;4976647;28;20046;-68
2022/05/30 11:23:46;;;;;;;;;;;15.20;88.50;;;;;;4994575;28;20035;-69
2022/05/30 11:26:28;;;;;;;3.45;0.50;;;15.20;88.70;;;;;;4995664;28;19916;-67
2022/05/30 11:29:15;;;;;;;0.40;0.40;;;15.30;88.50;;;;;;4994758;28;20493;-67
2022/05/30 11:31:44;;;;;;;1.13;0.88;;;15.30;89.10;;;;;;4993390;28;20018;-67
2022/05/30 11:34:34;;;;;;;0.95;0.65;;;15.30;89.70;;;;;;4994862;28;20030;-67
2022/05/30 11:37:19;;;;;;;3.22;1.00;;;15.30;90.00;;;;;;4994026;28;20030;-67
2022/05/30 11:40:05;;;;;;;6.07;1.20;;;15.30;90.10;;;;;;4992371;28;20046;-67
2022/05/30 11:42:43;;;;;;;3.03;0.85;;;15.30;90.00;;;;;;4993565;28;20023;-67
2022/05/30 11:45:38;;;;;;;3.30;1.17;;;15.30;90.00;;;;;;4992782;28;20033;-67
2022/05/30 11:48:18;;;;;;;5.22;0.85;;;15.40;90.20;;;;;;4991955;28;20049;-66
2022/05/30 11:51:19;;;;;;;4.15;1.20;;;15.50;90.00;;;;;;4993967;28;20034;-66
2022/05/30 11:54:26;;;;;;;1.10;0.70;;;15.50;89.90;;;;;;4965093;28;20074;-66
2022/05/30 11:57:19;;;;;;;1.25;0.80;;;15.50;89.80;;;;;;4993616;28;20096;-66
2022/05/30 11:59:56;;;;;;;1.38;0.80;;;15.60;89.20;;;;;;4992721;28;20080;-70
2022/05/30 12:02:42;;;;;;;2.17;1.00;;;15.60;89.60;;;;;;4994340;28;20037;-68
2022/05/30 12:05:25;;;;;;;1.40;0.70;;;15.70;89.10;;;;;;4993412;28;20113;-68
2022/05/30 12:07:59;;;;;;;1.40;0.90;;;15.70;88.80;;;;;;4990188;28;20054;-71
2022/05/30 12:10:55;;;;;;;1.00;0.50;;;15.70;89.20;;;;;;4992669;28;20026;-70
2022/05/30 12:13:45;;;;;;;1.65;0.60;;;15.80;88.80;;;;;;4993008;28;20113;-68
2022/05/30 12:16:43;;;;;;;1.23;0.65;;;15.80;88.60;;;;;;4994069;28;20030;-68
2022/05/30 12:24:57;;;;;;;1.10;0.70;;;16.00;87.90;;;;;;4984844;28;20769;-68
2022/05/30 12:27:28;;;;;;;1.17;0.75;;;16.00;87.90;;;;;;4993901;28;20034;-68
2022/05/30 12:29:55;;;;;;;0.50;0.50;;;16.10;87.30;;;;;;4993526;28;20037;-69
2022/05/30 12:32:21;;;;;;;2.28;0.70;;;16.20;87.30;;;;;;4993979;28;20034;-66
2022/05/30 12:35:04;;;;;;;0.98;0.60;;;16.30;86.60;;;;;;4994288;28;20022;-66
2022/05/30 12:37:38;;;;;;;0.28;0.28;;;16.30;85.60;;;;;;4994766;28;20445;-68
2022/05/30 12:40:25;;;;;;;0.40;0.40;;;16.50;86.80;;;;;;4980599;28;20053;-68
2022/05/30 12:43:04;;;;;;;0.57;0.52;;;16.40;87.40;;;;;;4993982;28;20026;-68
2022/05/30 12:45:51;;;;;;;0.73;0.55;;;16.40;87.20;;;;;;4993509;28;20500;-68
2022/05/30 12:48:31;;;;;;;0.32;0.32;;;16.40;88.10;;;;;;4993710;28;20486;-68
2022/05/30 12:51:10;;;;;;;0.22;0.22;;;16.30;88.40;;;;;;4994372;28;20482;-68
2022/05/30 12:53:54;;;;;;;0.43;0.43;;;16.30;88.50;;;;;;4980670;28;20085;-68
2022/05/30 12:56:38;;;;;;;1.55;0.40;;;16.20;88.50;;;;;;4993201;28;20375;-68
2022/05/30 12:59:03;;;;;;;3.05;0.70;;;16.10;88.80;;;;;;4994315;28;20038;-68
2022/05/30 13:01:48;;;;;;;0.50;0.50;;;16.10;88.70;;;;;;4993166;28;20048;-68
2022/05/30 13:04:29;;;;;;;0.57;0.57;;;16.10;89.00;;;;;;4992725;28;20426;-68
2022/05/30 13:06:58;;;;;;;2.15;0.70;;;16.00;89.10;;;;;;4992403;28;20135;-68
2022/05/30 13:09:36;;;;;;;0.90;0.60;;;16.10;89.10;;;;;;4993341;28;20041;-68
2022/05/30 13:12:07;;;;;;;4.47;1.00;;;16.10;89.40;;;;;;4992563;28;20479;-68
2022/05/30 13:14:33;;;;;;;1.50;0.73;;;16.10;89.30;;;;;;4991310;28;20034;-69
2022/05/30 13:17:17;;;;;;;2.58;0.80;;;16.00;89.30;;;;;;4990988;28;20023;-69
2022/05/30 13:19:47;;;;;;;0.73;0.60;;;16.00;89.40;;;;;;4990852;28;20065;-69
2022/05/30 13:22:19;;;;;;;0.88;0.68;;;16.10;89.40;;;;;;4990716;28;20736;-69
2022/05/30 13:24:45;;;;;;;1.38;0.75;;;16.00;89.20;;;;;;4982759;28;20565;-69
2022/05/30 13:27:11;;;;;;;1.95;1.00;;;16.00;89.10;;;;;;4992349;28;20030;-69
2022/05/30 13:29:39;;;;;;;1.95;0.60;;;16.10;89.10;;;;;;4991126;28;20471;-69
2022/05/30 13:32:16;;;;;;;0.80;0.80;;;16.10;88.70;;;;;;4992934;28;20037;-69
2022/05/30 13:34:48;;;;;;;1.63;0.85;;;16.20;88.80;;;;;;4992117;28;20041;-69
2022/05/30 13:37:24;;;;;;;0.85;0.77;;;16.30;88.70;;;;;;4990627;28;20030;-69
2022/05/30 13:39:51;;;;;;;2.10;1.08;;;16.30;88.80;;;;;;4989947;28;20486;-69
2022/05/30 13:42:17;;;;;;;0.68;0.68;;;16.30;88.40;;;;;;4991055;28;20034;-70
2022/05/30 13:44:43;;;;;;;0.75;0.60;;;16.30;88.50;;;;;;4991524;28;20146;-69
2022/05/30 13:47:14;;;;;;;1.88;0.80;;;16.30;88.70;;;;;;4988461;28;20090;-69
2022/05/30 13:49:43;;;;;;;1.63;0.90;;;16.40;88.80;;;;;;4990017;28;20034;-68
2022/05/30 13:52:30;;;;;;;1.65;0.80;;;16.40;88.80;;;;;;4989837;28;20371;-69
2022/05/30 13:55:01;;;;;;;1.77;0.68;;;16.40;88.80;;;;;;4992708;28;20031;-69
2022/05/30 13:57:29;;;;;;;2.10;0.85;;;16.40;88.70;;;;;;4990734;28;20441;-69
2022/05/30 13:59:58;;;;;;;1.60;0.95;;;16.40;88.80;;;;;;4991682;28;20032;-69